Time;durP1;ratioP1;P1;durP2;ratioP2;P2;SDS_P1;SDS_P2;PMS_P1;PMS_P2;Temp;Humidity;BMP_temperature;BMP_pressure;BME280_temperature;BME280_humidity;BME280_pressure;Samples;Min_cycle;Max_cycle;Signal;HPM_P1;HPM_P2
2022/10/23 00:02:14;;;;;;;13.20;4.53;;;;;;;16.13;79.55;101320.53;6172918;23;20492;-80
2022/10/23 00:04:58;;;;;;;13.63;4.57;;;;;;;16.01;80.28;101324.03;6182975;23;20023;-80
2022/10/23 00:07:43;;;;;;;8.35;3.42;;;;;;;16.06;79.73;101315.59;6156499;23;20028;-79
2022/10/23 00:10:28;;;;;;;7.55;4.10;;;;;;;16.08;80.17;101323.50;6176002;23;20023;-79
2022/10/23 00:13:12;;;;;;;12.55;4.95;;;;;;;16.10;79.73;101319.25;6158983;23;20035;-81
2022/10/23 00:15:57;;;;;;;12.85;3.63;;;;;;;16.05;80.18;101322.19;6157512;23;20024;-80
2022/10/23 00:18:42;;;;;;;9.75;4.15;;;;;;;16.13;79.94;101315.84;6180126;23;20024;-80
2022/10/23 00:21:27;;;;;;;15.00;4.25;;;;;;;16.17;80.19;101316.78;6159216;23;20028;-79
2022/10/23 00:24:12;;;;;;;;;;;;;;;16.26;79.77;101314.75;6159743;23;20027;-79
2022/10/23 00:26:57;;;;;;;8.15;4.10;;;;;;;16.24;79.74;101306.06;6181608;23;19908;-81
2022/10/23 00:29:43;;;;;;;13.65;4.47;;;;;;;16.27;79.80;101310.84;6159300;23;20031;-81
2022/10/23 00:32:28;;;;;;;15.13;4.95;;;;;;;16.22;80.10;101313.81;6180245;23;20436;-80
2022/10/23 00:35:13;;;;;;;18.90;5.78;;;;;;;16.20;80.03;101310.59;6181051;23;20031;-80
2022/10/23 00:37:57;;;;;;;;;;;;;;;16.25;79.56;101313.13;6160563;23;20019;-80
2022/10/23 00:40:44;;;;;;;13.43;4.88;;;;;;;16.19;80.12;101314.50;6159296;23;19909;-79
2022/10/23 00:43:30;;;;;;;16.70;4.53;;;;;;;16.23;79.99;101312.69;6159330;23;20024;-81
2022/10/23 00:46:14;;;;;;;14.73;4.43;;;;;;;16.45;78.86;101321.66;6180847;23;20469;-81
2022/10/23 00:49:00;;;;;;;20.98;5.15;;;;;;;16.30;79.71;101325.06;6181266;23;20015;-78
2022/10/23 00:51:54;;;;;;;10.18;5.03;;;;;;;16.26;79.71;101317.47;6173032;23;20023;-80
2022/10/23 00:54:42;;;;;;;16.67;4.95;;;;;;;16.30;79.71;101319.56;6180170;23;20020;-81
2022/10/23 00:57:27;;;;;;;7.43;4.32;;;;;;;16.09;80.73;101323.16;6179826;23;20031;-81
2022/10/23 01:00:22;;;;;;;10.10;4.22;;;;;;;16.04;81.29;101315.13;6178365;23;20477;-81
2022/10/23 01:03:07;;;;;;;10.60;4.03;;;;;;;16.08;81.63;101318.81;6157650;23;20020;-81
2022/10/23 01:06:14;;;;;;;10.93;3.90;;;;;;;16.14;80.71;101317.47;6179698;23;20028;-81
2022/10/23 01:09:17;;;;;;;5.68;2.72;;;;;;;16.00;81.38;101319.66;6180184;23;20024;-81
2022/10/23 01:12:08;;;;;;;9.05;4.45;;;;;;;16.12;81.00;101322.47;6171292;23;20019;-81
2022/10/23 01:15:25;;;;;;;10.57;4.43;;;;;;;16.09;80.68;101314.94;6159434;23;20171;-81
2022/10/23 01:18:23;;;;;;;6.55;4.35;;;;;;;16.02;82.03;101313.84;6181446;23;20025;-80
2022/10/23 01:21:13;;;;;;;10.48;4.38;;;;;;;15.94;81.91;101318.28;6157800;23;20024;-79
2022/10/23 01:24:10;;;;;;;8.75;5.00;;;;;;;16.12;80.44;101308.75;6158599;23;20024;-80
2022/10/23 01:27:08;;;;;;;10.32;4.47;;;;;;;15.93;81.23;101304.91;6157748;23;20019;-80
2022/10/23 01:30:05;;;;;;;9.27;3.75;;;;;;;15.82;81.85;101304.50;6180116;23;20024;-81
2022/10/23 01:33:07;;;;;;;11.38;4.22;;;;;;;15.74;82.35;101311.69;6158827;23;20003;-80
2022/10/23 01:36:05;;;;;;;9.15;4.20;;;;;;;15.81;81.97;101302.91;6179064;23;20024;-81
2022/10/23 01:38:59;;;;;;;8.68;4.20;;;;;;;15.89;81.54;101309.47;6157606;23;20020;-80
2022/10/23 01:41:49;;;;;;;8.00;4.10;;;;;;;15.80;81.75;101309.53;6172907;23;20357;-80
2022/10/23 01:44:43;;;;;;;12.85;4.28;;;;;;;15.82;82.19;101299.84;6179742;23;20024;-80
2022/10/23 01:47:33;;;;;;;10.23;4.85;;;;;;;15.87;81.24;101298.03;6157305;23;20439;-80
2022/10/23 01:50:24;;;;;;;7.60;3.83;;;;;;;15.85;81.10;101290.13;6177948;23;20020;-80
2022/10/23 01:53:18;;;;;;;8.90;3.67;;;;;;;15.84;81.19;101296.75;6180022;23;20362;-80
2022/10/23 01:56:07;;;;;;;8.88;4.10;;;;;;;15.67;81.92;101297.72;6158454;23;20027;-80
2022/10/23 01:58:57;;;;;;;11.10;4.13;;;;;;;15.67;81.58;101294.16;6179630;23;20024;-81
2022/10/23 02:01:45;;;;;;;15.70;5.65;;;;;;;15.77;80.68;101294.56;6172195;23;20024;-80
2022/10/23 02:04:54;;;;;;;7.65;4.22;;;;;;;15.57;81.94;101291.81;6157915;23;20028;-80
2022/10/23 02:07:39;;;;;;;9.90;3.83;;;;;;;15.48;82.09;101291.06;6180774;23;20020;-79
2022/10/23 02:10:47;;;;;;;;;;;;;;;15.41;82.52;101295.13;6157998;23;20342;-80
2022/10/23 02:14:04;;;;;;;10.70;3.85;;;;;;;15.43;82.02;101294.00;6158279;23;19908;-80
2022/10/23 02:16:58;;;;;;;7.57;3.90;;;;;;;15.37;82.30;101287.91;6157045;23;20027;-80
2022/10/23 02:19:59;;;;;;;15.35;3.28;;;;;;;15.30;83.51;101288.44;6158130;23;20027;-80
2022/10/23 02:23:14;;;;;;;12.20;4.32;;;;;;;15.44;82.72;101290.13;6158736;23;20028;-80
2022/10/23 02:26:07;;;;;;;7.00;3.55;;;;;;;15.53;82.51;101293.63;6158223;23;20024;-80
2022/10/23 02:28:59;;;;;;;11.93;4.25;;;;;;;15.27;82.99;101283.63;6181309;23;20016;-81
2022/10/23 02:31:44;;;;;;;9.23;4.18;;;;;;;15.27;82.90;101289.09;6160120;23;20036;-81
2022/10/23 02:34:29;;;;;;;8.30;3.08;;;;;;;15.19;83.64;101289.94;6182004;23;20023;-81
2022/10/23 02:37:14;;;;;;;6.70;3.65;;;;;;;15.30;82.45;101288.44;6182704;23;20024;-81
2022/10/23 02:39:59;;;;;;;9.73;4.22;;;;;;;15.23;82.94;101292.84;6161533;23;20023;-80
2022/10/23 02:42:58;;;;;;;6.22;3.92;;;;;;;15.34;81.99;101286.63;6157247;23;20024;-80
2022/10/23 02:45:53;;;;;;;9.60;3.95;;;;;;;15.41;81.83;101286.91;6157457;23;20019;-79
2022/10/23 02:48:49;;;;;;;7.70;2.65;;;;;;;15.29;81.96;101286.81;6157618;23;20069;-80
2022/10/23 02:51:45;;;;;;;9.48;3.72;;;;;;;15.34;82.39;101285.81;6172147;23;20024;-80
2022/10/23 02:54:49;;;;;;;11.50;3.75;;;;;;;15.40;81.66;101276.28;6179341;23;20024;-80
2022/10/23 02:58:13;;;;;;;6.65;4.40;;;;;;;15.40;81.99;101279.00;6175687;23;20023;-80
2022/10/23 03:01:10;;;;;;;6.20;3.58;;;;;;;15.38;81.60;101279.38;6171610;23;20031;-80
2022/10/23 03:04:01;;;;;;;9.05;3.42;;;;;;;15.38;82.03;101287.59;6156602;23;20024;-80
2022/10/23 03:06:49;;;;;;;6.57;3.50;;;;;;;15.54;80.56;101281.53;6155446;23;20028;-80
2022/10/23 03:09:35;;;;;;;7.25;4.03;;;;;;;15.64;80.05;101276.47;6178217;23;20016;-80
2022/10/23 03:12:20;;;;;;;6.43;3.95;;;;;;;15.58;80.48;101279.72;6178839;23;20020;-80
2022/10/23 03:15:06;;;;;;;6.15;3.85;;;;;;;15.58;80.68;101283.28;6181561;23;20023;-80
2022/10/23 03:17:51;;;;;;;5.32;3.72;;;;;;;15.54;80.97;101279.59;6180558;23;20106;-80
2022/10/23 03:20:36;;;;;;;6.30;2.47;;;;;;;15.53;81.36;101286.22;6155843;23;20039;-81
2022/10/23 03:23:21;;;;;;;6.22;2.85;;;;;;;15.58;80.89;101274.25;6181535;23;20023;-81
2022/10/23 03:26:07;;;;;;;10.00;3.38;;;;;;;15.62;80.63;101283.41;6181524;23;20020;-81
2022/10/23 03:29:00;;;;;;;10.55;3.17;;;;;;;15.44;81.92;101287.38;6159704;23;20020;-81
2022/10/23 03:31:44;;;;;;;;;;;;;;;15.43;82.28;101294.81;6175017;23;20019;-81
2022/10/23 03:34:29;;;;;;;7.55;3.85;;;;;;;15.40;82.20;101300.94;6181965;23;19908;-81
2022/10/23 03:37:14;;;;;;;8.48;3.75;;;;;;;15.39;82.71;101299.31;6181792;23;20028;-82
2022/10/23 03:39:59;;;;;;;4.95;3.53;;;;;;;15.41;82.74;101299.81;6180697;23;20465;-81
2022/10/23 03:42:47;;;;;;;7.70;3.08;;;;;;;15.34;82.66;101288.56;6159556;23;20028;-81
2022/10/23 03:45:37;;;;;;;7.88;4.00;;;;;;;15.49;82.06;101279.75;6159951;23;20028;-81
2022/10/23 03:48:23;;;;;;;;;;;;;;;15.34;82.65;101288.56;6181049;23;20035;-81
2022/10/23 03:51:08;;;;;;;7.35;3.35;;;;;;;15.35;82.75;101284.69;6176105;23;20253;-81
2022/10/23 03:53:53;;;;;;;;;;;;;;;15.27;82.61;101282.81;6182403;23;20081;-81
2022/10/23 03:56:38;;;;;;;3.33;2.17;;;;;;;15.25;83.13;101296.03;6180793;23;19908;-81
2022/10/23 03:59:26;;;;;;;8.00;3.67;;;;;;;15.18;83.16;101291.09;6181077;23;20019;-81
2022/10/23 04:02:11;;;;;;;7.55;3.15;;;;;;;15.12;83.85;101303.38;6172043;23;20359;-81
2022/10/23 04:04:55;;;;;;;10.45;2.80;;;;;;;15.13;83.48;101296.78;6180780;23;20024;-81
2022/10/23 04:07:40;;;;;;;4.50;2.97;;;;;;;15.20;83.36;101301.72;6181105;23;20027;-81
2022/10/23 04:10:25;;;;;;;8.40;2.80;;;;;;;15.08;83.75;101307.94;6159469;23;20020;-81
2022/10/23 04:13:10;;;;;;;2.95;2.17;;;;;;;15.05;83.77;101302.28;6159334;23;20020;-81
2022/10/23 04:15:55;;;;;;;;;;;;;;;15.11;83.08;101311.94;6159294;23;20019;-81
2022/10/23 04:18:41;;;;;;;5.53;2.90;;;;;;;15.22;82.43;101321.38;6159353;23;19912;-81
2022/10/23 04:21:27;;;;;;;8.23;3.45;;;;;;;15.26;81.97;101319.56;6172416;23;20028;-81
2022/10/23 04:24:13;;;;;;;4.10;3.00;;;;;;;15.19;81.71;101313.81;6181219;23;20043;-81
2022/10/23 04:26:58;;;;;;;14.27;3.42;;;;;;;15.14;82.07;101317.53;6181995;23;20020;-81
2022/10/23 04:29:45;;;;;;;5.13;2.92;;;;;;;15.17;81.88;101324.31;6158994;23;20016;-80
2022/10/23 04:32:31;;;;;;;7.57;2.80;;;;;;;15.11;82.08;101323.69;6159446;23;20635;-81
2022/10/23 04:35:16;;;;;;;6.97;2.97;;;;;;;15.19;82.17;101325.56;6182513;23;20373;-82
2022/10/23 12:33:46;;;;;;;8.32;3.13;;;;;;;33.01;31.59;101360.06;6146519;22;884610;-80
2022/10/23 12:36:49;;;;;;;12.07;3.00;;;;;;;33.11;31.36;101350.47;6158301;23;20025;-81
2022/10/23 12:39:37;;;;;;;6.47;2.63;;;;;;;33.84;29.92;101349.06;6159366;23;20028;-81
2022/10/23 12:42:26;;;;;;;15.27;3.20;;;;;;;33.51;30.34;101336.56;6162950;23;20357;-81
2022/10/23 12:45:22;;;;;;;12.40;3.08;;;;;;;32.70;31.65;101336.56;6141755;23;20025;-82
2022/10/23 12:48:18;;;;;;;10.30;2.65;;;;;;;32.93;31.50;101334.16;6183530;23;20032;-86
2022/10/23 12:51:03;;;;;;;11.73;2.97;;;;;;;32.82;31.33;101328.06;6191626;23;20035;-86
2022/10/23 12:53:48;;;;;;;15.77;3.38;;;;;;;32.93;31.68;101325.69;6211834;23;20023;-85
2022/10/23 12:56:35;;;;;;;16.10;3.53;;;;;;;32.70;31.48;101317.63;6186081;23;20024;-86
2022/10/23 12:59:26;;;;;;;10.93;3.60;;;;;;;32.00;32.49;101321.41;6161751;23;20503;-85
2022/10/23 13:02:27;;;;;;;14.75;3.83;;;;;;;29.29;37.06;101308.72;6161694;23;20019;-86
2022/10/23 13:05:18;;;;;;;11.73;4.07;;;;;;;27.15;42.36;101297.38;6162829;23;20020;-86
2022/10/23 13:08:04;;;;;;;9.75;3.33;;;;;;;26.16;44.53;101287.72;6182214;23;20028;-86
2022/10/23 13:11:02;;;;;;;9.98;3.33;;;;;;;25.45;46.41;101293.59;6162051;23;20028;-86
2022/10/23 13:13:50;;;;;;;16.70;3.47;;;;;;;24.97;47.91;101284.19;6159213;23;20023;-88
2022/10/23 13:16:34;;;;;;;17.83;3.45;;;;;;;24.56;49.37;101281.78;6158937;23;20043;-88
2022/10/23 13:19:24;;;;;;;14.77;4.18;;;;;;;24.49;49.61;101278.19;6183223;23;20023;-85
2022/10/23 13:22:19;;;;;;;10.73;3.95;;;;;;;24.41;49.78;101279.38;6158142;23;20039;-88
2022/10/23 13:25:22;;;;;;;8.38;3.33;;;;;;;24.31;50.43;101275.41;6154114;23;20024;-88
2022/10/23 13:28:07;;;;;;;12.10;3.47;;;;;;;24.39;50.40;101279.78;6154333;23;20024;-88
2022/10/23 13:31:11;;;;;;;15.75;4.35;;;;;;;24.39;50.78;101277.00;6175971;23;20370;-86
2022/10/23 13:33:59;;;;;;;14.18;4.45;;;;;;;24.63;50.27;101278.22;6154521;23;20032;-86
2022/10/23 13:36:54;;;;;;;11.40;4.30;;;;;;;24.60;50.33;101271.44;6154783;23;20028;-86
2022/10/23 13:39:39;;;;;;;13.32;3.25;;;;;;;24.68;50.02;101275.84;6155075;23;20077;-86
2022/10/23 13:42:23;;;;;;;8.25;3.28;;;;;;;24.83;50.11;101278.59;6154883;23;20020;-86
2022/10/23 13:45:18;;;;;;;19.38;4.20;;;;;;;24.87;49.83;101266.31;6154583;23;20020;-85
2022/10/23 13:48:12;;;;;;;16.55;4.20;;;;;;;24.80;49.84;101271.84;6153865;23;20073;-86
2022/10/23 13:51:10;;;;;;;7.40;3.63;;;;;;;24.55;50.33;101266.28;6155171;23;20024;-86
2022/10/23 13:53:56;;;;;;;14.23;3.47;;;;;;;24.50;50.64;101277.81;6152759;23;20024;-88
2022/10/23 13:56:41;;;;;;;10.07;3.30;;;;;;;24.54;50.81;101278.59;6151330;23;20020;-87
2022/10/23 13:59:26;;;;;;;24.58;4.32;;;;;;;24.42;51.13;101273.44;6151487;23;20019;-87
2022/10/23 14:02:17;;;;;;;14.05;5.25;;;;;;;24.22;52.09;101269.44;6149596;23;20343;-87
2022/10/23 14:05:02;;;;;;;13.85;4.30;;;;;;;24.07;51.72;101270.56;6173171;23;20349;-87
2022/10/23 14:07:47;;;;;;;17.83;3.97;;;;;;;23.87;52.15;101279.22;6151104;23;20028;-86
2022/10/23 14:10:33;;;;;;;13.07;4.10;;;;;;;23.70;52.82;101288.31;6173078;23;20023;-86
2022/10/23 14:13:18;;;;;;;11.10;4.60;;;;;;;23.56;53.58;101279.94;6150393;23;20028;-87
2022/10/23 14:16:04;;;;;;;14.73;4.80;;;;;;;23.40;54.18;101276.63;6151410;23;20027;-87
2022/10/23 14:18:49;;;;;;;14.70;4.40;;;;;;;23.35;54.07;101274.22;6150808;23;20019;-86
2022/10/23 14:21:33;;;;;;;;;;;;;;;23.27;54.14;101281.72;6151926;23;20020;-87
2022/10/23 14:24:17;;;;;;;10.53;3.13;;;;;;;23.47;54.12;101282.25;6172744;23;19909;-87
2022/10/23 14:27:03;;;;;;;10.88;3.45;;;;;;;23.25;54.53;101281.31;6151322;23;20028;-87
2022/10/23 14:29:48;;;;;;;15.70;4.47;;;;;;;23.16;55.28;101277.28;6150643;23;20028;-86
2022/10/23 14:32:32;;;;;;;;;;;;;;;23.11;55.25;101278.44;6173511;23;20020;-86
2022/10/23 14:35:17;;;;;;;25.35;4.70;;;;;;;23.03;55.20;101274.84;6150976;23;19908;-87
2022/10/23 14:38:02;;;;;;;12.25;4.05;;;;;;;23.13;55.28;101276.06;6166511;23;20023;-87
2022/10/23 14:40:47;;;;;;;18.67;3.70;;;;;;;23.17;54.70;101270.53;6173327;23;20039;-86
2022/10/23 14:43:31;;;;;;;19.67;4.43;;;;;;;23.02;55.37;101276.00;6172231;23;20028;-86
2022/10/23 14:46:20;;;;;;;32.47;4.55;;;;;;;22.89;55.71;101265.63;6150390;23;20024;-87
2022/10/23 14:49:04;;;;;;;11.35;3.90;;;;;;;22.83;56.66;101270.72;6151236;23;20027;-87
2022/10/23 14:51:50;;;;;;;16.55;4.30;;;;;;;22.80;56.46;101271.50;6172932;23;20024;-87
2022/10/23 14:54:35;;;;;;;17.08;3.78;;;;;;;22.77;56.69;101277.00;6150790;23;20354;-87
2022/10/23 14:57:21;;;;;;;12.70;3.83;;;;;;;22.69;57.29;101272.56;6151945;23;20357;-86
2022/10/23 15:00:06;;;;;;;17.40;3.85;;;;;;;22.76;56.99;101278.97;6173066;23;20024;-86
2022/10/23 15:02:51;;;;;;;22.27;4.80;;;;;;;22.73;57.50;101268.66;6171391;23;20024;-87
2022/10/23 15:05:40;;;;;;;9.90;3.38;;;;;;;22.68;57.46;101273.75;6150792;23;20032;-86
2022/10/23 15:08:25;;;;;;;8.80;4.80;;;;;;;22.60;57.47;101272.91;6171434;23;20482;-87
2022/10/23 15:11:10;;;;;;;13.32;3.80;;;;;;;22.54;57.73;101268.88;6171446;23;20390;-86
2022/10/23 15:13:54;;;;;;;;;;;;;;;22.48;57.59;101264.84;6149358;23;20028;-87
2022/10/23 15:16:41;;;;;;;13.43;4.03;;;;;;;22.35;57.74;101266.34;6170470;23;19909;-87
2022/10/23 15:19:26;;;;;;;22.50;3.65;;;;;;;22.37;57.70;101258.41;6150448;23;20028;-86
2022/10/23 15:22:11;;;;;;;17.55;3.80;;;;;;;22.29;58.34;101257.56;6151134;23;20021;-86
2022/10/23 15:24:56;;;;;;;12.50;3.47;;;;;;;22.20;58.45;101264.59;6151308;23;20020;-86
2022/10/23 15:27:41;;;;;;;13.25;4.05;;;;;;;22.11;58.46;101260.16;6165634;23;20023;-87
2022/10/23 15:30:26;;;;;;;11.07;4.47;;;;;;;21.99;59.15;101265.94;6172998;23;20024;-87
2022/10/23 15:33:11;;;;;;;27.30;4.53;;;;;;;21.89;59.68;101263.06;6172282;23;20024;-87
2022/10/23 15:35:56;;;;;;;17.83;4.53;;;;;;;21.74;59.57;101251.78;6150514;23;20024;-87
2022/10/23 15:38:41;;;;;;;9.75;3.38;;;;;;;21.64;59.94;101249.69;6173175;23;20077;-87
2022/10/23 15:41:31;;;;;;;14.23;3.75;;;;;;;21.58;60.06;101255.97;6173085;23;20016;-87
2022/10/23 15:44:18;;;;;;;15.45;4.40;;;;;;;21.44;60.80;101255.75;6171606;23;20081;-87
2022/10/23 15:47:03;;;;;;;9.98;3.85;;;;;;;21.38;60.77;101257.28;6169032;23;20024;-86
2022/10/23 15:49:48;;;;;;;9.68;3.90;;;;;;;21.29;61.95;101255.56;6150678;23;20346;-87
2022/10/23 15:52:33;;;;;;;14.95;4.55;;;;;;;21.21;62.30;101255.88;6150585;23;20044;-87
2022/10/23 15:55:19;;;;;;;13.50;3.90;;;;;;;21.12;61.67;101249.78;6151115;23;20032;-86
2022/10/23 15:58:04;;;;;;;12.23;3.45;;;;;;;21.04;62.38;101257.16;6165242;23;20300;-86
2022/10/23 16:00:49;;;;;;;19.52;4.82;;;;;;;20.93;63.66;101258.97;6172215;23;20028;-87
2022/10/23 16:03:36;;;;;;;8.52;4.10;;;;;;;20.86;63.82;101258.88;6172036;23;20032;-86
2022/10/23 16:06:21;;;;;;;9.07;3.92;;;;;;;20.76;63.94;101254.78;6172399;23;20032;-86
2022/10/23 16:09:06;;;;;;;10.52;3.58;;;;;;;20.67;64.03;101256.22;6151255;23;20027;-87
2022/10/23 16:11:51;;;;;;;10.20;4.32;;;;;;;20.57;64.59;101256.84;6150612;23;20072;-86
2022/10/23 16:14:37;;;;;;;11.52;4.38;;;;;;;20.43;65.74;101252.66;6149346;23;20024;-87
2022/10/23 16:17:23;;;;;;;11.13;4.80;;;;;;;20.32;67.71;101257.19;6149553;23;20024;-86
2022/10/23 16:20:08;;;;;;;9.07;3.35;;;;;;;20.23;68.21;101256.59;6148581;23;20024;-87
2022/10/23 16:22:53;;;;;;;17.25;5.10;;;;;;;20.15;69.42;101263.19;6171107;23;20016;-88
2022/10/23 16:25:38;;;;;;;13.15;3.80;;;;;;;20.10;70.29;101257.16;6175668;23;20024;-88
2022/10/23 16:28:23;;;;;;;17.38;4.97;;;;;;;20.07;70.42;101261.44;6156625;23;20028;-87
2022/10/23 16:31:11;;;;;;;13.27;4.22;;;;;;;20.03;70.71;101255.03;6179848;23;20567;-89
2022/10/23 16:33:58;;;;;;;9.45;4.10;;;;;;;20.03;70.91;101255.84;6158089;23;20027;-88
2022/10/23 16:36:44;;;;;;;4.45;3.55;;;;;;;19.94;71.33;101263.56;6156507;23;20028;-88
2022/10/23 16:39:47;;;;;;;6.47;3.50;;;;;;;19.79;71.53;101263.66;6172944;23;20032;-89
2022/10/23 16:43:03;;;;;;;5.38;2.80;;;;;;;19.66;72.25;101265.75;6171241;23;20028;-87
2022/10/23 16:46:07;;;;;;;6.63;2.63;;;;;;;19.65;72.18;101269.69;6149272;23;20469;-87
2022/10/23 16:48:52;;;;;;;6.25;2.67;;;;;;;19.71;71.92;101275.72;6170810;23;20353;-86
2022/10/23 16:51:36;;;;;;;13.88;3.53;;;;;;;19.53;72.75;101280.84;6169749;23;20025;-87
2022/10/23 16:54:22;;;;;;;5.82;2.75;;;;;;;19.52;72.58;101285.56;6170182;23;20029;-87
2022/10/23 16:57:07;;;;;;;7.00;2.88;;;;;;;19.44;72.85;101285.75;6149353;23;20469;-88
2022/10/23 16:59:51;;;;;;;;;;;;;;;19.34;73.03;101284.38;6151181;23;20027;-88
2022/10/23 17:02:36;;;;;;;4.70;2.60;;;;;;;19.22;73.97;101287.22;6150011;23;19909;-87
2022/10/23 17:05:21;;;;;;;5.03;2.45;;;;;;;19.12;74.38;101291.34;6150440;23;20024;-87
2022/10/23 17:08:06;;;;;;;17.80;2.53;;;;;;;19.08;74.72;101295.19;6165137;23;20077;-85
2022/10/23 17:11:05;;;;;;;5.55;3.33;;;;;;;19.12;74.46;101301.56;6172049;23;20033;-87
2022/10/23 17:13:56;;;;;;;8.05;2.85;;;;;;;19.05;74.56;101304.16;6148621;23;20024;-86
2022/10/23 17:16:45;;;;;;;8.02;2.95;;;;;;;19.10;74.21;101309.41;6149648;23;20023;-87
2022/10/23 17:19:31;;;;;;;7.95;2.22;;;;;;;19.11;73.72;101308.25;6149723;23;20024;-87
2022/10/23 17:22:16;;;;;;;4.75;2.08;;;;;;;19.03;73.81;101306.50;6149035;23;20016;-87
2022/10/23 17:25:01;;;;;;;10.35;2.55;;;;;;;18.97;73.49;101308.72;6150713;23;20028;-88
2022/10/23 17:27:46;;;;;;;5.53;2.08;;;;;;;18.96;72.75;101312.63;6149806;23;20788;-86
2022/10/23 17:30:36;;;;;;;8.90;2.33;;;;;;;19.09;71.63;101316.91;6150036;23;20023;-87
2022/10/23 17:33:21;;;;;;;8.82;3.17;;;;;;;18.90;72.07;101308.53;6158173;23;20028;-84
2022/10/23 17:36:06;;;;;;;7.00;2.72;;;;;;;18.91;71.35;101312.09;6164249;23;20028;-87
2022/10/23 17:38:52;;;;;;;9.07;2.60;;;;;;;18.69;72.84;101317.06;6186047;23;20028;-88
2022/10/23 17:41:37;;;;;;;10.35;2.50;;;;;;;18.62;72.83;101324.38;6165504;23;20023;-83
2022/10/23 17:44:22;;;;;;;9.43;2.65;;;;;;;18.58;72.89;101326.25;6185238;23;20024;-84
2022/10/23 17:47:07;;;;;;;5.45;2.30;;;;;;;18.56;72.42;101321.06;6164580;23;20032;-83
2022/10/23 17:49:52;;;;;;;10.80;2.40;;;;;;;18.46;72.83;101324.31;6166695;23;20374;-85
2022/10/23 17:52:37;;;;;;;7.30;2.35;;;;;;;18.47;72.94;101323.16;6189696;23;20016;-86
2022/10/23 17:55:23;;;;;;;6.18;2.03;;;;;;;18.49;72.67;101326.34;6167162;23;20027;-84
2022/10/23 17:58:08;;;;;;;9.57;3.47;;;;;;;18.45;72.86;101330.97;6167238;23;20368;-85
2022/10/23 18:00:53;;;;;;;14.50;2.45;;;;;;;18.62;71.40;101318.84;6188692;23;20036;-85
2022/10/23 18:03:38;;;;;;;6.38;2.30;;;;;;;18.63;71.07;101323.22;6189480;23;20024;-85
2022/10/23 18:06:26;;;;;;;5.95;2.58;;;;;;;18.53;71.19;101316.25;6168086;23;20040;-85
2022/10/23 18:09:12;;;;;;;5.50;2.05;;;;;;;18.38;71.86;101314.28;6167207;23;20027;-84
2022/10/23 18:11:57;;;;;;;9.05;2.78;;;;;;;18.40;71.94;101317.47;6168206;23;20024;-85
2022/10/23 18:14:42;;;;;;;9.98;2.60;;;;;;;18.26;72.41;101306.06;6168236;23;20019;-84
2022/10/23 18:17:27;;;;;;;5.47;2.10;;;;;;;18.29;72.23;101317.19;6168362;23;20023;-85
2022/10/23 18:20:14;;;;;;;4.78;2.00;;;;;;;18.20;71.89;101315.75;6166444;23;20031;-84
2022/10/23 18:22:59;;;;;;;9.93;2.17;;;;;;;18.12;72.18;101308.44;6164916;23;20007;-84
2022/10/23 18:25:45;;;;;;;7.53;2.33;;;;;;;18.05;72.80;101316.50;6164780;23;20020;-83
2022/10/23 18:28:31;;;;;;;7.68;2.35;;;;;;;18.00;72.77;101314.00;6166218;23;20040;-82
2022/10/23 18:31:18;;;;;;;11.23;3.55;;;;;;;18.13;72.21;101310.06;6167640;23;20007;-81
2022/10/23 18:34:07;;;;;;;8.63;2.40;;;;;;;18.08;72.01;101321.31;6171563;23;20069;-87
2022/10/23 18:36:53;;;;;;;13.15;2.47;;;;;;;17.98;72.60;101317.09;6171452;23;20065;-86
2022/10/23 18:39:38;;;;;;;8.90;2.97;;;;;;;17.98;72.59;101317.09;6170258;23;20028;-84
2022/10/23 18:42:23;;;;;;;5.63;2.47;;;;;;;17.76;73.54;101315.72;6168857;23;20353;-86
2022/10/23 18:45:11;;;;;;;5.93;1.83;;;;;;;17.70;73.82;101313.53;6165057;23;20138;-82
2022/10/23 18:47:56;;;;;;;6.35;2.83;;;;;;;17.71;74.18;101324.19;6164201;23;20019;-82
2022/10/23 18:50:40;;;;;;;7.18;2.60;;;;;;;17.64;73.92;101318.47;6184591;23;20023;-84
2022/10/23 18:53:27;;;;;;;11.65;2.53;;;;;;;17.69;74.08;101311.94;6187246;23;20023;-85
2022/10/23 18:56:14;;;;;;;20.10;3.28;;;;;;;17.82;73.30;101311.56;6163407;23;20024;-82
2022/10/23 18:59:01;;;;;;;6.88;2.50;;;;;;;17.83;73.02;101309.59;6161436;23;20032;-87
2022/10/23 19:01:47;;;;;;;9.73;3.10;;;;;;;17.72;73.46;101306.56;6154272;23;20036;-86
2022/10/23 19:04:32;;;;;;;6.28;2.65;;;;;;;17.57;74.19;101303.69;6157611;23;20028;-84
2022/10/23 19:07:17;;;;;;;7.40;2.88;;;;;;;17.54;74.26;101305.97;6159669;23;20024;-84
2022/10/23 19:10:02;;;;;;;6.28;2.13;;;;;;;17.43;75.14;101301.31;6180403;23;20024;-86
2022/10/23 19:12:47;;;;;;;12.55;2.60;;;;;;;17.36;75.50;101304.66;6178711;23;20076;-88
2022/10/23 19:15:33;;;;;;;12.20;2.83;;;;;;;17.33;75.95;101304.53;6152173;23;20031;-84
2022/10/23 19:18:18;;;;;;;5.85;2.90;;;;;;;17.33;75.79;101310.84;6129787;23;20028;-82
2022/10/23 19:21:04;;;;;;;7.70;3.17;;;;;;;17.27;76.09;101309.47;6163420;23;20028;-80
2022/10/23 19:24:19;;;;;;;13.70;3.30;;;;;;;17.27;76.07;101309.47;6144531;23;20020;-81
2022/10/23 19:27:04;;;;;;;7.05;2.42;;;;;;;17.24;76.17;101315.66;6135129;23;20467;-79
2022/10/23 19:29:52;;;;;;;5.40;2.88;;;;;;;17.24;75.74;101323.09;6138078;23;20029;-79
2022/10/23 19:32:37;;;;;;;8.63;3.60;;;;;;;17.20;75.99;101324.94;6113398;23;20070;-81
2022/10/23 19:35:21;;;;;;;;;;;;;;;17.22;75.96;101319.91;6114257;23;20028;-80
2022/10/23 19:38:06;;;;;;;6.85;2.85;;;;;;;17.47;74.78;101314.00;6115007;23;19909;-80
2022/10/23 19:40:50;;;;;;;8.73;2.90;;;;;;;17.46;74.58;101312.44;6114688;23;20021;-79
2022/10/23 19:43:36;;;;;;;6.40;2.90;;;;;;;17.43;74.51;101317.81;6112526;23;20478;-79
2022/10/23 19:46:22;;;;;;;10.25;2.47;;;;;;;17.50;73.87;101324.34;6137013;23;20021;-80
2022/10/23 19:49:07;;;;;;;10.82;2.85;;;;;;;17.47;74.10;101329.75;6139831;23;20021;-80
2022/10/23 19:51:53;;;;;;;17.45;3.13;;;;;;;17.34;74.62;101328.94;6140706;23;20021;-81
2022/10/23 19:54:39;;;;;;;5.13;3.10;;;;;;;17.49;74.01;101327.44;6116854;23;20028;-80
2022/10/23 19:57:25;;;;;;;8.25;2.72;;;;;;;17.58;73.72;101322.59;6116221;23;20020;-82
2022/10/23 20:00:10;;;;;;;9.88;2.80;;;;;;;17.27;74.41;101325.19;6115757;23;20025;-82
2022/10/23 20:02:55;;;;;;;6.13;2.95;;;;;;;17.20;74.77;101320.25;6136146;23;20462;-82
2022/10/23 20:05:44;;;;;;;6.15;3.10;;;;;;;17.14;75.19;101318.88;6115860;23;20025;-82
2022/10/23 20:08:29;;;;;;;7.50;2.85;;;;;;;17.23;74.93;101316.00;6116724;23;20024;-82
2022/10/23 20:11:23;;;;;;;14.80;4.95;;;;;;;17.37;74.39;101309.00;6115276;23;20355;-81
2022/10/23 20:14:08;;;;;;;7.30;3.13;;;;;;;17.29;74.28;101306.38;6137220;23;20021;-82
2022/10/23 20:16:52;;;;;;;;;;;;;;;17.22;74.36;101314.44;6134515;23;20351;-82
2022/10/23 20:19:37;;;;;;;7.22;2.78;;;;;;;17.15;74.53;101316.94;6137882;23;19909;-82
2022/10/23 20:22:22;;;;;;;6.78;3.00;;;;;;;17.03;75.05;101315.78;6136489;23;20041;-81
2022/10/23 20:25:07;;;;;;;12.07;3.33;;;;;;;16.98;75.16;101317.97;6135887;23;20172;-82
2022/10/23 20:27:52;;;;;;;8.25;2.90;;;;;;;16.90;75.33;101325.19;6130879;23;20021;-82
2022/10/23 20:30:41;;;;;;;;;;;;;;;16.84;76.01;101334.78;6136995;23;20024;-83
2022/10/23 20:33:26;;;;;;;9.82;3.03;;;;;;;16.83;76.27;101335.13;6137465;23;19912;-81
2022/10/23 20:36:27;;;;;;;;;;;;;;;16.98;75.13;101328.94;6138777;23;20021;-82
2022/10/23 20:39:16;;;;;;;14.23;3.80;;;;;;;16.87;75.64;101327.81;6137339;23;19909;-82
2022/10/23 20:42:02;;;;;;;7.68;3.55;;;;;;;16.78;76.10;101321.63;6137097;23;20044;-83
2022/10/23 20:44:47;;;;;;;4.78;2.47;;;;;;;16.77;76.07;101322.75;6136316;23;20033;-81
2022/10/23 20:47:31;;;;;;;6.30;3.03;;;;;;;16.64;76.55;101331.00;6132951;23;20024;-82
2022/10/23 20:50:18;;;;;;;;;;;;;;;16.57;77.02;101321.66;6137114;23;20489;-82
2022/10/23 20:53:02;;;;;;;3.70;2.35;;;;;;;16.67;76.38;101324.81;6135782;23;19912;-80
2022/10/23 20:55:47;;;;;;;8.02;3.03;;;;;;;16.58;76.61;101324.13;6137596;23;20478;-82
2022/10/23 20:58:32;;;;;;;5.53;3.08;;;;;;;16.67;76.26;101324.00;6135950;23;20029;-82